createdAt,value
2023-04-16T00:00:00.488Z,99880
2023-04-16T00:01:00.600Z,99880
2023-04-16T00:02:00.544Z,99880
2023-04-16T00:03:00.685Z,99880
2023-04-16T00:04:00.736Z,99880
2023-04-16T00:05:00.556Z,99880
2023-04-16T00:06:00.448Z,99880
2023-04-16T00:07:00.410Z,99880
2023-04-16T00:08:00.640Z,99880
2023-04-16T00:09:00.408Z,99890
2023-04-16T00:10:00.435Z,99890
2023-04-16T00:11:00.417Z,99890
2023-04-16T00:12:00.609Z,99890
2023-04-16T00:13:00.498Z,99890
2023-04-16T00:14:00.399Z,99890
2023-04-16T00:15:00.407Z,99890
2023-04-16T00:16:00.426Z,99890
2023-04-16T00:17:00.480Z,99880
2023-04-16T00:18:00.532Z,99880
2023-04-16T00:19:00.451Z,99880
2023-04-16T00:20:00.554Z,99880
2023-04-16T00:21:00.434Z,99890
2023-04-16T00:22:00.434Z,99880
2023-04-16T00:23:00.458Z,99890
2023-04-16T00:24:00.481Z,99880
2023-04-16T00:25:00.409Z,99890
2023-04-16T00:26:00.432Z,99890
2023-04-16T00:27:00.394Z,99890
2023-04-16T00:28:00.486Z,99890
2023-04-16T00:29:00.463Z,99900
2023-04-16T00:30:00.564Z,99890
2023-04-16T00:31:00.617Z,99890
2023-04-16T00:32:00.441Z,99890
2023-04-16T00:33:00.464Z,99890
2023-04-16T00:34:00.422Z,99880
2023-04-16T00:35:00.429Z,99880
2023-04-16T00:36:00.408Z,99880
2023-04-16T00:37:00.421Z,99880
2023-04-16T00:38:00.404Z,99880
2023-04-16T00:39:00.442Z,99880
2023-04-16T00:40:00.483Z,99880
2023-04-16T00:41:00.405Z,99880
2023-04-16T00:42:00.528Z,99880
2023-04-16T00:43:00.518Z,99880
2023-04-16T00:44:00.588Z,99880
2023-04-16T00:45:00.403Z,99890
2023-04-16T00:46:04.187Z,99890
2023-04-16T00:47:00.959Z,99890
2023-04-16T00:48:00.815Z,99880
2023-04-16T00:49:01.654Z,99890
2023-04-16T00:50:02.179Z,99890
2023-04-16T00:51:01.178Z,99900
2023-04-16T00:52:00.448Z,99890
2023-04-16T00:53:01.135Z,99890
2023-04-16T00:54:01.793Z,99900
2023-04-16T00:55:00.617Z,99900
2023-04-16T00:56:02.368Z,99900
2023-04-16T00:57:01.267Z,99900
2023-04-16T00:58:00.422Z,99890
2023-04-16T00:59:00.504Z,99900
2023-04-16T01:00:01.498Z,99900
2023-04-16T01:01:00.969Z,99900
2023-04-16T01:02:00.544Z,99900
2023-04-16T01:03:00.659Z,99900
2023-04-16T01:04:00.695Z,99900
2023-04-16T01:05:01.379Z,99900
2023-04-16T01:06:00.531Z,99900
2023-04-16T01:07:00.410Z,99890
2023-04-16T01:08:00.406Z,99900
2023-04-16T01:09:00.539Z,99900
2023-04-16T01:10:00.898Z,99900
2023-04-16T01:11:00.508Z,99900
2023-04-16T01:12:00.469Z,99900
2023-04-16T01:13:00.396Z,99900
2023-04-16T01:14:00.398Z,99900
2023-04-16T01:15:00.659Z,99900
2023-04-16T01:16:00.483Z,99900
2023-04-16T01:17:01.385Z,99910
2023-04-16T01:18:00.448Z,99910
2023-04-16T01:19:00.437Z,99910
2023-04-16T01:20:00.469Z,99910
2023-04-16T01:21:00.813Z,99910
2023-04-16T01:22:01.389Z,99920
2023-04-16T01:23:00.445Z,99920
2023-04-16T01:24:02.348Z,99920
2023-04-16T01:25:00.429Z,99920
2023-04-16T01:26:00.580Z,99920
2023-04-16T01:27:00.444Z,99920
2023-04-16T01:28:00.426Z,99920
2023-04-16T01:29:01.740Z,99920
2023-04-16T01:30:00.420Z,99930
2023-04-16T01:31:00.451Z,99920
2023-04-16T01:32:00.423Z,99920
2023-04-16T01:33:00.708Z,99910
2023-04-16T01:34:00.436Z,99920
2023-04-16T01:35:00.527Z,99920
2023-04-16T01:36:00.459Z,99920
2023-04-16T01:37:00.448Z,99920
2023-04-16T01:38:00.432Z,99920
2023-04-16T01:39:00.454Z,99920
2023-04-16T01:40:00.468Z,99920
2023-04-16T01:41:00.430Z,99920
2023-04-16T01:42:00.705Z,99930
2023-04-16T01:43:00.866Z,99920
2023-04-16T01:44:00.402Z,99920
2023-04-16T01:45:00.760Z,99920
2023-04-16T01:46:12.886Z,99920
2023-04-16T01:47:00.582Z,99920
2023-04-16T01:48:01.096Z,99920
2023-04-16T01:49:00.890Z,99920
2023-04-16T01:50:00.820Z,99920
2023-04-16T01:51:00.453Z,99930
2023-04-16T01:52:00.426Z,99930
2023-04-16T01:53:00.424Z,99930
2023-04-16T01:54:00.451Z,99930
2023-04-16T01:55:00.422Z,99930
2023-04-16T01:56:00.422Z,99930
2023-04-16T01:57:00.430Z,99930
2023-04-16T01:58:00.441Z,99930
2023-04-16T01:59:00.429Z,99930
2023-04-16T02:00:00.692Z,99930
2023-04-16T02:01:00.525Z,99930
2023-04-16T02:02:07.173Z,99930
2023-04-16T02:03:00.755Z,99930
2023-04-16T02:04:00.653Z,99930
2023-04-16T02:05:00.739Z,99930
2023-04-16T02:06:00.441Z,99940
2023-04-16T02:07:00.422Z,99930
2023-04-16T02:08:00.429Z,99930
2023-04-16T02:09:00.525Z,99930
2023-04-16T02:10:00.619Z,99930
2023-04-16T02:11:00.581Z,99930
2023-04-16T02:12:00.439Z,99940
2023-04-16T02:13:00.400Z,99930
2023-04-16T02:14:00.487Z,99930
2023-04-16T02:15:00.469Z,99930
2023-04-16T02:16:00.439Z,99930
2023-04-16T02:17:00.413Z,99930
2023-04-16T02:18:00.466Z,99930
2023-04-16T02:19:00.412Z,99930
2023-04-16T02:20:00.585Z,99930
2023-04-16T02:21:00.430Z,99930
2023-04-16T02:22:00.639Z,99930
2023-04-16T02:23:00.393Z,99930
2023-04-16T02:24:00.386Z,99930
2023-04-16T02:25:00.433Z,99930
2023-04-16T02:26:02.158Z,99930
2023-04-16T02:27:00.411Z,99930
2023-04-16T02:28:00.407Z,99930
2023-04-16T02:29:00.527Z,99930
2023-04-16T02:30:00.401Z,99940
2023-04-16T02:31:00.461Z,99940
2023-04-16T02:32:00.459Z,99940
2023-04-16T02:33:00.570Z,99940
2023-04-16T02:34:00.631Z,99940
2023-04-16T02:35:00.426Z,99940
2023-04-16T02:36:00.575Z,99940
2023-04-16T02:37:00.407Z,99940
2023-04-16T02:38:04.680Z,99940
2023-04-16T02:39:00.448Z,99940
2023-04-16T02:40:00.423Z,99950
2023-04-16T02:41:00.408Z,99950
2023-04-16T02:42:00.400Z,99950
2023-04-16T02:43:00.453Z,99950
2023-04-16T02:44:00.451Z,99950
2023-04-16T02:45:00.395Z,99950
2023-04-16T02:46:00.482Z,99950
2023-04-16T02:47:00.388Z,99950
2023-04-16T02:48:00.432Z,99950
2023-04-16T02:49:00.396Z,99950
2023-04-16T02:50:00.407Z,99950
2023-04-16T02:51:00.595Z,99960
2023-04-16T02:52:00.407Z,99960
2023-04-16T02:53:00.397Z,99960
2023-04-16T02:54:00.404Z,99960
2023-04-16T02:55:00.599Z,99960
2023-04-16T02:56:00.421Z,99960
2023-04-16T02:57:00.398Z,99960
2023-04-16T02:58:00.451Z,99970
2023-04-16T02:59:00.458Z,99970
2023-04-16T03:00:00.604Z,99970
2023-04-16T03:01:00.458Z,99970
2023-04-16T03:02:00.424Z,99970
2023-04-16T03:03:00.466Z,99980
2023-04-16T03:04:00.510Z,99970
2023-04-16T03:05:00.392Z,99980
2023-04-16T03:06:00.474Z,99970
2023-04-16T03:07:00.473Z,99980
2023-04-16T03:08:00.479Z,99980
2023-04-16T03:09:00.421Z,99980
2023-04-16T03:10:00.428Z,99980
2023-04-16T03:11:00.422Z,99980
2023-04-16T03:12:00.765Z,99980
2023-04-16T03:13:04.684Z,99980
2023-04-16T03:14:00.419Z,99980
2023-04-16T03:15:00.611Z,99980
2023-04-16T03:16:00.500Z,99980
2023-04-16T03:17:00.454Z,99980
2023-04-16T03:18:00.480Z,99990
2023-04-16T03:19:00.439Z,99990
2023-04-16T03:20:00.536Z,99990
2023-04-16T03:21:00.433Z,99990
2023-04-16T03:22:00.434Z,99990
2023-04-16T03:23:00.473Z,99990
2023-04-16T03:24:00.417Z,99990
2023-04-16T03:25:00.456Z,100000
2023-04-16T03:26:00.482Z,99990
2023-04-16T03:27:00.406Z,99990
2023-04-16T03:28:00.417Z,100000
2023-04-16T03:29:00.450Z,99990
2023-04-16T03:30:01.045Z,99990
2023-04-16T03:31:00.504Z,100000
2023-04-16T03:32:00.402Z,100000
2023-04-16T03:33:00.565Z,100000
2023-04-16T03:34:00.421Z,99990
2023-04-16T03:35:00.459Z,100000
2023-04-16T03:36:00.430Z,100000
2023-04-16T03:37:00.418Z,100000
2023-04-16T03:38:00.426Z,100000
2023-04-16T03:39:00.406Z,100000
2023-04-16T03:40:00.979Z,100000
2023-04-16T03:41:00.407Z,100010
2023-04-16T03:42:00.451Z,100000
2023-04-16T03:43:00.451Z,100010
2023-04-16T03:44:00.403Z,100010
2023-04-16T03:45:00.454Z,100010
2023-04-16T03:46:00.493Z,100010
2023-04-16T03:47:00.533Z,100020
2023-04-16T03:48:00.404Z,100010
2023-04-16T03:49:00.442Z,100010
2023-04-16T03:50:00.503Z,100020
2023-04-16T03:51:00.425Z,100020
2023-04-16T03:52:00.433Z,100020
2023-04-16T03:53:00.409Z,100020
2023-04-16T03:54:00.432Z,100020
2023-04-16T03:55:00.418Z,100020
2023-04-16T03:56:00.468Z,100020
2023-04-16T03:57:00.389Z,100020
2023-04-16T03:58:00.513Z,100020
2023-04-16T03:59:00.415Z,100020
2023-04-16T04:00:00.456Z,100020
2023-04-16T04:01:00.626Z,100020
2023-04-16T04:02:00.544Z,100020
2023-04-16T04:03:00.662Z,100020
2023-04-16T04:04:00.736Z,100030
2023-04-16T04:05:00.485Z,100030
2023-04-16T04:06:00.413Z,100030
2023-04-16T04:07:00.448Z,100030
2023-04-16T04:08:00.400Z,100030
2023-04-16T04:09:00.755Z,100030
2023-04-16T04:10:00.492Z,100040
2023-04-16T04:11:00.441Z,100040
2023-04-16T04:12:00.432Z,100040
2023-04-16T04:13:02.608Z,100040
2023-04-16T04:14:00.436Z,100040
2023-04-16T04:15:00.462Z,100040
2023-04-16T04:16:00.459Z,100050
2023-04-16T04:17:00.438Z,100050
2023-04-16T04:18:00.450Z,100050
2023-04-16T04:19:00.664Z,100050
2023-04-16T04:20:01.682Z,100050
2023-04-16T04:21:03.992Z,100050
2023-04-16T04:22:00.412Z,100060
2023-04-16T04:23:00.432Z,100060
2023-04-16T04:24:00.466Z,100060
2023-04-16T04:25:00.399Z,100060
2023-04-16T04:26:00.533Z,100060
2023-04-16T04:27:00.446Z,100060
2023-04-16T04:28:00.437Z,100060
2023-04-16T04:29:00.418Z,100050
2023-04-16T04:30:00.539Z,100060
2023-04-16T04:31:00.830Z,100060
2023-04-16T04:32:00.749Z,100050
2023-04-16T04:33:00.500Z,100060
2023-04-16T04:34:00.436Z,100060
2023-04-16T04:35:01.426Z,100060
2023-04-16T04:36:00.413Z,100070
2023-04-16T04:37:00.439Z,100070
2023-04-16T04:38:02.580Z,100070
2023-04-16T04:39:00.406Z,100070
2023-04-16T04:40:00.426Z,100070
2023-04-16T04:41:00.420Z,100070
2023-04-16T04:42:00.436Z,100070
2023-04-16T04:43:00.406Z,100070
2023-04-16T04:44:00.446Z,100070
2023-04-16T04:45:00.416Z,100070
2023-04-16T04:46:00.465Z,100070
2023-04-16T04:47:00.486Z,100070
2023-04-16T04:48:00.466Z,100060
2023-04-16T04:49:00.402Z,100060
2023-04-16T04:50:00.486Z,100070
2023-04-16T04:51:01.569Z,100060
2023-04-16T04:52:00.495Z,100070
2023-04-16T04:53:00.397Z,100060
2023-04-16T04:54:00.420Z,100070
2023-04-16T04:55:00.433Z,100060
2023-04-16T04:56:09.191Z,100070
2023-04-16T04:57:00.433Z,100060
2023-04-16T04:58:00.411Z,100060
2023-04-16T04:59:00.401Z,100060
2023-04-16T05:00:00.435Z,100060
2023-04-16T05:01:00.492Z,100070
2023-04-16T05:02:00.503Z,100070
2023-04-16T05:03:02.138Z,100060
2023-04-16T05:04:00.499Z,100070
2023-04-16T05:05:00.522Z,100070
2023-04-16T05:06:00.430Z,100070
2023-04-16T05:07:00.650Z,100070
2023-04-16T05:08:00.418Z,100070
2023-04-16T05:09:00.477Z,100070
2023-04-16T05:10:00.463Z,100070
2023-04-16T05:11:00.395Z,100070
2023-04-16T05:12:00.525Z,100080
2023-04-16T05:13:00.446Z,100080
2023-04-16T05:14:00.400Z,100080
2023-04-16T05:15:00.403Z,100080
2023-04-16T05:16:00.416Z,100080
2023-04-16T05:17:00.571Z,100090
2023-04-16T05:18:00.522Z,100090
2023-04-16T05:19:00.458Z,100090
2023-04-16T05:20:00.416Z,100100
2023-04-16T05:21:00.429Z,100100
2023-04-16T05:22:00.439Z,100100
2023-04-16T05:23:00.418Z,100100
2023-04-16T05:24:00.421Z,100100
2023-04-16T05:25:00.514Z,100100
2023-04-16T05:26:00.424Z,100110
2023-04-16T05:27:00.392Z,100100
2023-04-16T05:28:00.391Z,100110
2023-04-16T05:29:00.414Z,100110
2023-04-16T05:30:00.440Z,100110
2023-04-16T05:31:00.499Z,100110
2023-04-16T05:32:00.402Z,100110
2023-04-16T05:33:00.505Z,100110
2023-04-16T05:34:00.392Z,100110
2023-04-16T05:35:00.486Z,100110
2023-04-16T05:36:00.542Z,100110
2023-04-16T05:37:00.399Z,100110
2023-04-16T05:38:00.396Z,100110
2023-04-16T05:39:00.398Z,100110
2023-04-16T05:40:00.445Z,100110
2023-04-16T05:41:00.471Z,100110
2023-04-16T05:42:00.415Z,100110
2023-04-16T05:43:00.493Z,100110
2023-04-16T05:44:00.402Z,100120
2023-04-16T05:45:01.845Z,100120
2023-04-16T05:46:00.499Z,100120
2023-04-16T05:47:00.433Z,100120
2023-04-16T05:48:00.461Z,100120
2023-04-16T05:49:00.432Z,100120
2023-04-16T05:50:00.410Z,100120
2023-04-16T05:51:00.410Z,100110
2023-04-16T05:52:00.664Z,100120
2023-04-16T05:53:01.437Z,100110
2023-04-16T05:54:00.424Z,100110
2023-04-16T05:55:00.433Z,100110
2023-04-16T05:56:00.562Z,100110
2023-04-16T05:57:00.400Z,100110
2023-04-16T05:58:00.454Z,100110
2023-04-16T05:59:00.560Z,100100
2023-04-16T06:00:00.450Z,100100
2023-04-16T06:01:00.605Z,100100
2023-04-16T06:02:00.474Z,100100
2023-04-16T06:03:01.497Z,100100
2023-04-16T06:04:00.508Z,100100
2023-04-16T06:05:00.438Z,100100
2023-04-16T06:06:00.487Z,100100
2023-04-16T06:07:00.534Z,100100
2023-04-16T06:08:00.462Z,100100
2023-04-16T06:09:00.428Z,100100
2023-04-16T06:10:00.441Z,100100
2023-04-16T06:11:00.529Z,100110
2023-04-16T06:12:00.504Z,100110
2023-04-16T06:13:00.598Z,100110
2023-04-16T06:14:00.421Z,100110
2023-04-16T06:15:00.481Z,100110
2023-04-16T06:16:00.425Z,100110
2023-04-16T06:17:00.457Z,100110
2023-04-16T06:18:01.102Z,100110
2023-04-16T06:19:00.415Z,100110
2023-04-16T06:20:00.492Z,100120
2023-04-16T06:21:00.452Z,100120
2023-04-16T06:22:00.494Z,100120
2023-04-16T06:23:00.408Z,100120
2023-04-16T06:24:00.427Z,100120
2023-04-16T06:25:00.414Z,100120
2023-04-16T06:26:00.482Z,100120
2023-04-16T06:27:00.453Z,100120
2023-04-16T06:28:00.432Z,100120
2023-04-16T06:29:00.463Z,100120
2023-04-16T06:30:00.416Z,100120
2023-04-16T06:31:00.516Z,100120
2023-04-16T06:32:00.541Z,100130
2023-04-16T06:33:00.459Z,100130
2023-04-16T06:34:00.463Z,100130
2023-04-16T06:35:00.489Z,100130
2023-04-16T06:36:00.410Z,100130
2023-04-16T06:37:00.398Z,100130
2023-04-16T06:38:00.446Z,100130
2023-04-16T06:39:00.387Z,100140
2023-04-16T06:40:00.585Z,100130
2023-04-16T06:41:00.455Z,100140
2023-04-16T06:42:00.512Z,100130
2023-04-16T06:43:00.399Z,100140
2023-04-16T06:44:00.428Z,100130
2023-04-16T06:45:00.460Z,100130
2023-04-16T06:46:00.408Z,100140
2023-04-16T06:47:00.505Z,100130
2023-04-16T06:48:00.482Z,100130
2023-04-16T06:49:00.390Z,100130
2023-04-16T06:50:00.482Z,100130
2023-04-16T06:51:00.444Z,100130
2023-04-16T06:52:00.460Z,100130
2023-04-16T06:53:00.597Z,100130
2023-04-16T06:54:00.405Z,100130
2023-04-16T06:55:00.644Z,100130
2023-04-16T06:56:00.399Z,100130
2023-04-16T06:57:00.435Z,100130
2023-04-16T06:58:00.385Z,100130
2023-04-16T06:59:00.392Z,100130
2023-04-16T07:00:00.628Z,100130
2023-04-16T07:01:00.622Z,100130
2023-04-16T07:02:00.552Z,100130
2023-04-16T07:03:00.628Z,100130
2023-04-16T07:04:00.609Z,100140
2023-04-16T07:05:00.540Z,100140
2023-04-16T07:06:00.479Z,100140
2023-04-16T07:07:00.463Z,100130
2023-04-16T07:08:00.437Z,100140
2023-04-16T07:09:00.431Z,100140
2023-04-16T07:10:00.492Z,100150
2023-04-16T07:11:00.899Z,100150
2023-04-16T07:12:00.493Z,100150
2023-04-16T07:13:00.578Z,100150
2023-04-16T07:14:00.508Z,100150
2023-04-16T07:15:00.421Z,100160
2023-04-16T07:16:00.445Z,100160
2023-04-16T07:17:00.414Z,100160
2023-04-16T07:18:00.531Z,100160
2023-04-16T07:19:00.451Z,100160
2023-04-16T07:20:00.421Z,100160
2023-04-16T07:21:00.596Z,100160
2023-04-16T07:22:00.503Z,100170
2023-04-16T07:23:00.519Z,100160
2023-04-16T07:24:02.149Z,100170
2023-04-16T07:25:00.454Z,100170
2023-04-16T07:26:00.402Z,100170
2023-04-16T07:27:00.501Z,100160
2023-04-16T07:28:00.638Z,100160
2023-04-16T07:29:00.405Z,100170
2023-04-16T07:30:00.424Z,100160
2023-04-16T07:31:00.508Z,100170
2023-04-16T07:32:00.544Z,100170
2023-04-16T07:33:02.583Z,100170
2023-04-16T07:34:00.462Z,100170
2023-04-16T07:35:00.512Z,100180
2023-04-16T07:36:00.407Z,100170
2023-04-16T07:37:00.427Z,100170
2023-04-16T07:38:00.421Z,100180
2023-04-16T07:39:00.525Z,100180
2023-04-16T07:40:00.466Z,100170
2023-04-16T07:41:00.675Z,100180
2023-04-16T07:42:00.544Z,100180
2023-04-16T07:43:00.466Z,100180
2023-04-16T07:44:00.428Z,100180
2023-04-16T07:45:00.434Z,100180
2023-04-16T07:46:00.430Z,100190
2023-04-16T07:47:00.520Z,100190
2023-04-16T07:48:00.580Z,100190
2023-04-16T07:49:00.405Z,100190
2023-04-16T07:50:00.410Z,100190
2023-04-16T07:51:00.452Z,100190
2023-04-16T07:52:01.068Z,100190
2023-04-16T07:53:00.397Z,100180
2023-04-16T07:54:00.434Z,100190
2023-04-16T07:55:00.401Z,100190
2023-04-16T07:56:00.419Z,100190
2023-04-16T07:57:00.612Z,100190
2023-04-16T07:58:00.398Z,100190
2023-04-16T07:59:18.300Z,100190
2023-04-16T08:00:00.497Z,100190
2023-04-16T08:01:01.117Z,100190
2023-04-16T08:02:00.619Z,100200
2023-04-16T08:03:00.719Z,100190
2023-04-16T08:04:00.738Z,100190
2023-04-16T08:05:00.531Z,100190
2023-04-16T08:06:00.412Z,100200
2023-04-16T08:07:00.411Z,100200
2023-04-16T08:08:00.467Z,100200
2023-04-16T08:09:00.424Z,100200
2023-04-16T08:10:00.559Z,100190
2023-04-16T08:11:00.452Z,100190
2023-04-16T08:12:00.674Z,100190
2023-04-16T08:13:00.646Z,100200
2023-04-16T08:14:00.394Z,100190
2023-04-16T08:15:00.455Z,100190
2023-04-16T08:16:00.467Z,100190
2023-04-16T08:17:00.406Z,100190
2023-04-16T08:18:00.573Z,100190
2023-04-16T08:19:00.436Z,100190
2023-04-16T08:20:00.440Z,100190
2023-04-16T08:21:00.540Z,100190
2023-04-16T08:22:00.484Z,100200
2023-04-16T08:23:00.420Z,100190
2023-04-16T08:24:00.446Z,100200
2023-04-16T08:25:00.400Z,100200
2023-04-16T08:26:00.478Z,100200
2023-04-16T08:27:11.426Z,100200
2023-04-16T08:28:00.497Z,100200
2023-04-16T08:29:00.548Z,100200
2023-04-16T08:30:00.415Z,100190
2023-04-16T08:31:00.483Z,100200
2023-04-16T08:32:00.507Z,100200
2023-04-16T08:33:00.528Z,100200
2023-04-16T08:34:00.428Z,100200
2023-04-16T08:35:00.574Z,100200
2023-04-16T08:36:00.413Z,100200
2023-04-16T08:37:00.404Z,100200
2023-04-16T08:38:02.717Z,100200
2023-04-16T08:39:00.399Z,100200
2023-04-16T08:40:00.462Z,100200
2023-04-16T08:41:04.428Z,100210
2023-04-16T08:42:03.583Z,100200
2023-04-16T08:43:04.172Z,100200
2023-04-16T08:44:06.784Z,100200
2023-04-16T08:45:06.627Z,100210
2023-04-16T08:46:00.757Z,100210
2023-04-16T08:47:00.762Z,100210
2023-04-16T08:48:00.961Z,100210
2023-04-16T08:49:03.986Z,100210
2023-04-16T08:50:02.273Z,100210
2023-04-16T08:51:01.587Z,100200
2023-04-16T08:52:05.060Z,100210
2023-04-16T08:53:05.077Z,100210
2023-04-16T08:54:10.223Z,100210
2023-04-16T08:55:10.867Z,100210
2023-04-16T08:56:02.912Z,100220
2023-04-16T08:57:04.470Z,100220
2023-04-16T08:58:05.320Z,100220
2023-04-16T08:59:01.672Z,100230
2023-04-16T09:00:01.295Z,100220
2023-04-16T09:01:02.668Z,100220
2023-04-16T09:02:01.144Z,100220
2023-04-16T09:03:01.796Z,100220
2023-04-16T09:04:01.800Z,100220
2023-04-16T09:05:03.986Z,100220
2023-04-16T09:06:01.009Z,100230
2023-04-16T09:07:02.936Z,100230
2023-04-16T09:08:00.847Z,100230
2023-04-16T09:09:01.151Z,100230
2023-04-16T09:10:00.759Z,100230
2023-04-16T09:11:00.466Z,100230
2023-04-16T09:12:00.898Z,100230
2023-04-16T09:13:00.535Z,100230
2023-04-16T09:14:00.486Z,100230
2023-04-16T09:15:01.354Z,100230
2023-04-16T09:16:01.067Z,100230
2023-04-16T09:17:01.351Z,100230
2023-04-16T09:18:00.507Z,100230
2023-04-16T09:19:00.489Z,100230
2023-04-16T09:20:00.411Z,100230
2023-04-16T09:21:00.508Z,100230
2023-04-16T09:22:00.470Z,100230
2023-04-16T09:23:00.420Z,100230
2023-04-16T09:24:01.027Z,100230
2023-04-16T09:25:00.519Z,100230
2023-04-16T09:26:00.855Z,100230
2023-04-16T09:27:01.777Z,100230
2023-04-16T09:28:00.478Z,100230
2023-04-16T09:29:00.484Z,100230
2023-04-16T09:30:00.528Z,100230
2023-04-16T09:31:08.658Z,100230
2023-04-16T09:32:04.022Z,100230
2023-04-16T09:33:12.552Z,100230
2023-04-16T09:34:01.841Z,100230
2023-04-16T09:35:00.891Z,100230
2023-04-16T09:36:01.117Z,100230
2023-04-16T09:37:17.677Z,100240
2023-04-16T09:38:00.407Z,100230
2023-04-16T09:39:01.211Z,100240
2023-04-16T09:40:01.855Z,100240
2023-04-16T09:41:09.166Z,100240
2023-04-16T09:42:04.173Z,100240
2023-04-16T09:43:09.171Z,100240
2023-04-16T09:44:01.720Z,100240
2023-04-16T09:45:03.321Z,100250
2023-04-16T09:46:07.383Z,100240
2023-04-16T09:47:05.093Z,100250
2023-04-16T09:48:02.548Z,100250
2023-04-16T09:49:09.119Z,100250
2023-04-16T09:50:00.416Z,100250
2023-04-16T09:51:00.484Z,100250
2023-04-16T09:52:00.525Z,100250
2023-04-16T09:53:01.061Z,100250
2023-04-16T09:54:03.963Z,100250
2023-04-16T09:55:00.429Z,100250
2023-04-16T09:56:05.179Z,100260
2023-04-16T09:57:00.442Z,100260
2023-04-16T09:58:01.089Z,100260
2023-04-16T09:59:00.435Z,100260
2023-04-16T10:00:03.758Z,100250
2023-04-16T10:01:02.477Z,100250
2023-04-16T10:02:14.708Z,100250
2023-04-16T10:03:04.974Z,100250
2023-04-16T10:04:00.536Z,100250
2023-04-16T10:05:01.439Z,100260
2023-04-16T10:06:06.280Z,100250
2023-04-16T10:07:03.097Z,100250
2023-04-16T10:08:00.488Z,100250
2023-04-16T10:09:00.406Z,100260
2023-04-16T10:10:01.716Z,100260
2023-04-16T10:11:01.217Z,100250
2023-04-16T10:12:00.446Z,100260
2023-04-16T10:13:00.549Z,100260
2023-04-16T10:14:00.510Z,100260
2023-04-16T10:15:00.783Z,100260
2023-04-16T10:16:02.050Z,100260
2023-04-16T10:17:01.331Z,100260
2023-04-16T10:18:01.641Z,100260
2023-04-16T10:19:00.983Z,100260
2023-04-16T10:20:00.482Z,100250
2023-04-16T10:21:01.252Z,100260
2023-04-16T10:22:02.158Z,100250
2023-04-16T10:23:01.053Z,100260
2023-04-16T10:24:00.599Z,100260
2023-04-16T10:25:01.128Z,100250
2023-04-16T10:26:01.025Z,100250
2023-04-16T10:27:00.662Z,100250
2023-04-16T10:28:01.561Z,100250
2023-04-16T10:29:01.688Z,100250
2023-04-16T10:30:00.952Z,100250
2023-04-16T10:31:02.095Z,100250
2023-04-16T10:32:02.310Z,100250
2023-04-16T10:33:03.371Z,100250
2023-04-16T10:34:01.292Z,100250
2023-04-16T10:35:00.492Z,100250
2023-04-16T10:36:11.421Z,100250
2023-04-16T10:37:00.425Z,100250
2023-04-16T10:38:20.350Z,100250
2023-04-16T10:39:00.399Z,100250
2023-04-16T10:40:00.447Z,100250
2023-04-16T10:41:03.460Z,100250
2023-04-16T10:42:09.538Z,100250
2023-04-16T10:43:00.469Z,100250
2023-04-16T10:44:05.604Z,100250
2023-04-16T10:45:00.421Z,100260
2023-04-16T10:46:20.343Z,100260
2023-04-16T10:47:00.527Z,100250
2023-04-16T10:48:05.781Z,100260
2023-04-16T10:49:11.314Z,100250
2023-04-16T10:50:00.455Z,100260
2023-04-16T10:51:00.398Z,100250
2023-04-16T10:52:08.849Z,100260
2023-04-16T10:53:20.345Z,100250
2023-04-16T10:54:03.641Z,100260
2023-04-16T10:55:00.454Z,100260
2023-04-16T10:56:09.920Z,100250
2023-04-16T10:57:06.250Z,100250
2023-04-16T10:58:00.437Z,100260
2023-04-16T10:59:03.680Z,100260
2023-04-16T11:00:00.419Z,100250
2023-04-16T11:01:06.385Z,100250
2023-04-16T11:02:05.852Z,100250
2023-04-16T11:03:00.579Z,100250
2023-04-16T11:04:20.433Z,100250
2023-04-16T11:05:00.764Z,100250
2023-04-16T11:06:12.643Z,100250
2023-04-16T11:07:03.241Z,100250
2023-04-16T11:08:13.218Z,100250
2023-04-16T11:09:01.836Z,100250
2023-04-16T11:10:04.690Z,100260
2023-04-16T11:11:03.667Z,100250
2023-04-16T11:12:02.764Z,100260
2023-04-16T11:13:01.125Z,100250
2023-04-16T11:14:03.442Z,100250
2023-04-16T11:15:09.272Z,100250
2023-04-16T11:16:00.538Z,100250
2023-04-16T11:17:02.578Z,100250
2023-04-16T11:18:00.519Z,100250
2023-04-16T11:19:00.716Z,100250
2023-04-16T11:20:00.661Z,100250
2023-04-16T11:21:00.926Z,100250
2023-04-16T11:22:01.256Z,100250
2023-04-16T11:23:00.406Z,100250
2023-04-16T11:24:00.424Z,100250
2023-04-16T11:25:00.469Z,100250
2023-04-16T11:26:00.422Z,100250
2023-04-16T11:27:00.405Z,100250
2023-04-16T11:28:01.024Z,100250
2023-04-16T11:29:00.478Z,100250
2023-04-16T11:30:03.625Z,100250
2023-04-16T11:31:09.975Z,100250
2023-04-16T11:32:00.489Z,100250
2023-04-16T11:33:02.195Z,100260
2023-04-16T11:34:00.436Z,100250
2023-04-16T11:35:01.962Z,100260
2023-04-16T11:36:00.486Z,100260
2023-04-16T11:37:00.431Z,100260
2023-04-16T11:38:00.433Z,100260
2023-04-16T11:39:01.271Z,100250
2023-04-16T11:40:01.570Z,100260
2023-04-16T11:41:00.737Z,100260
2023-04-16T11:42:00.509Z,100260
2023-04-16T11:43:14.373Z,100260
2023-04-16T11:44:17.687Z,100260
2023-04-16T11:45:00.474Z,100260
2023-04-16T11:46:10.313Z,100260
2023-04-16T11:47:04.862Z,100260
2023-04-16T11:48:00.467Z,100260
2023-04-16T11:49:00.399Z,100260
2023-04-16T11:50:18.525Z,100260
2023-04-16T11:51:00.413Z,100260
2023-04-16T11:52:00.466Z,100260
2023-04-16T11:53:04.187Z,100260
2023-04-16T11:54:00.973Z,100260
2023-04-16T11:55:01.513Z,100260
2023-04-16T11:56:00.440Z,100260
2023-04-16T11:57:00.428Z,100250
2023-04-16T11:58:11.151Z,100250
2023-04-16T11:59:12.856Z,100260
2023-04-16T12:00:02.768Z,100260
2023-04-16T12:01:00.805Z,100260
2023-04-16T12:02:00.516Z,100250
2023-04-16T12:03:01.912Z,100260
2023-04-16T12:04:01.924Z,100250
2023-04-16T12:05:00.551Z,100260
2023-04-16T12:06:06.550Z,100250
2023-04-16T12:07:11.257Z,100250
2023-04-16T12:08:02.969Z,100260
2023-04-16T12:09:20.341Z,100250
2023-04-16T12:10:05.396Z,100260
2023-04-16T12:11:00.401Z,100260
2023-04-16T12:12:00.963Z,100260
2023-04-16T12:13:10.357Z,100260
2023-04-16T12:14:11.646Z,100260
2023-04-16T12:15:01.537Z,100250
2023-04-16T12:16:00.395Z,100250
2023-04-16T12:17:17.846Z,100250
2023-04-16T12:18:07.794Z,100250
2023-04-16T12:19:02.108Z,100250
2023-04-16T12:20:02.839Z,100250
2023-04-16T12:21:03.663Z,100250
2023-04-16T12:22:00.397Z,100250
2023-04-16T12:23:00.424Z,100250
2023-04-16T12:24:00.443Z,100250
2023-04-16T12:25:02.775Z,100250
2023-04-16T12:26:08.836Z,100250
2023-04-16T12:27:00.430Z,100250
2023-04-16T12:28:00.469Z,100250
2023-04-16T12:29:20.322Z,100250
2023-04-16T12:30:02.941Z,100240
2023-04-16T12:31:01.767Z,100240
2023-04-16T12:32:00.469Z,100250
2023-04-16T12:33:18.051Z,100240
2023-04-16T12:34:01.055Z,100240
2023-04-16T12:35:00.482Z,100240